Time;durP1;ratioP1;P1;durP2;ratioP2;P2;SDS_P1;SDS_P2;PMS_P1;PMS_P2;Temp;Humidity;BMP_temperature;BMP_pressure;BME280_temperature;BME280_humidity;BME280_pressure;Samples;Min_cycle;Max_cycle;Signal;HPM_P1;HPM_P2
2023/08/05 00:00:20;;;;;;;832.40;781.90;;;15.40;99.90;;;;;;5012946;28;20461;-72
2023/08/05 00:02:47;;;;;;;826.93;777.30;;;15.40;99.90;;;;;;5013098;28;20458;-72
2023/08/05 00:05:14;;;;;;;834.27;782.53;;;15.40;99.90;;;;;;5013181;28;20820;-73
2023/08/05 00:07:42;;;;;;;827.07;776.00;;;15.40;99.90;;;;;;5013132;28;20450;-72
2023/08/05 00:10:10;;;;;;;823.20;773.10;;;15.40;99.90;;;;;;5013042;28;20456;-72
2023/08/05 00:12:37;;;;;;;821.40;771.20;;;15.40;99.90;;;;;;5012576;28;20533;-73
2023/08/05 00:15:04;;;;;;;822.43;772.63;;;15.40;99.90;;;;;;5013079;28;20453;-73
2023/08/05 00:17:31;;;;;;;835.47;784.20;;;15.40;99.90;;;;;;5012791;28;20540;-73
2023/08/05 00:19:58;;;;;;;829.17;778.67;;;15.40;99.90;;;;;;5012943;28;20456;-72
2023/08/05 00:22:25;;;;;;;832.47;782.20;;;15.40;99.90;;;;;;5012482;28;20441;-72
2023/08/05 00:24:53;;;;;;;820.63;770.93;;;15.30;99.90;;;;;;5012763;28;20949;-72
2023/08/05 00:27:20;;;;;;;817.40;768.00;;;15.30;99.90;;;;;;5012668;28;20476;-73
2023/08/05 00:29:47;;;;;;;805.67;757.23;;;15.30;99.90;;;;;;5012858;28;20839;-73
2023/08/05 00:32:13;;;;;;;817.70;768.20;;;15.20;99.90;;;;;;5012727;28;20449;-72
2023/08/05 00:34:40;;;;;;;826.70;777.60;;;15.20;99.90;;;;;;5012886;28;20840;-72
2023/08/05 00:37:07;;;;;;;819.63;771.03;;;15.10;99.90;;;;;;5012731;28;20956;-73
2023/08/05 00:39:34;;;;;;;803.83;756.27;;;15.10;99.90;;;;;;5012640;28;20455;-73
2023/08/05 00:42:02;;;;;;;810.47;763.07;;;15.00;99.90;;;;;;5012223;28;20499;-73
2023/08/05 00:44:29;;;;;;;804.90;757.87;;;14.90;99.90;;;;;;5012677;28;20450;-72
2023/08/05 00:46:57;;;;;;;820.60;770.50;;;14.90;99.90;;;;;;5012657;28;20456;-72
2023/08/05 00:49:25;;;;;;;825.40;775.30;;;14.80;99.90;;;;;;5012621;28;20536;-72
2023/08/05 00:51:52;;;;;;;827.40;777.80;;;14.80;99.90;;;;;;5012585;28;20540;-73
2023/08/05 00:54:19;;;;;;;851.70;799.50;;;14.70;99.90;;;;;;5014646;28;20564;-73
2023/08/05 00:56:46;;;;;;;859.30;805.00;;;14.70;99.90;;;;;;5016505;28;20449;-72
2023/08/05 00:59:15;;;;;;;881.63;824.90;;;14.60;99.90;;;;;;5016427;28;20455;-72
2023/08/05 01:01:42;;;;;;;869.20;813.80;;;14.50;99.90;;;;;;5016203;28;20917;-72
2023/08/05 01:04:09;;;;;;;888.93;831.20;;;14.40;99.90;;;;;;5016417;28;21148;-73
2023/08/05 01:06:37;;;;;;;886.60;827.67;;;14.30;99.90;;;;;;5016252;28;20814;-72
2023/08/05 01:09:04;;;;;;;885.47;825.43;;;14.20;99.90;;;;;;5015977;28;20528;-72
2023/08/05 01:11:31;;;;;;;896.30;832.23;;;14.20;99.90;;;;;;5016123;28;20453;-72
2023/08/05 01:13:58;;;;;;;893.57;828.50;;;14.10;99.90;;;;;;5016154;28;20555;-72
2023/08/05 01:16:26;;;;;;;889.50;823.60;;;14.10;99.90;;;;;;5016108;28;20454;-72
2023/08/05 01:18:55;;;;;;;886.30;820.90;;;14.00;99.90;;;;;;5015818;28;20552;-72
2023/08/05 01:21:29;;;;;;;891.57;825.60;;;13.90;99.90;;;;;;5015582;28;20445;-72
2023/08/05 01:24:05;;;;;;;887.27;820.47;;;13.90;99.90;;;;;;5016118;28;20536;-72
2023/08/05 01:26:35;;;;;;;884.57;816.87;;;13.90;99.90;;;;;;5016096;28;20453;-72
2023/08/05 01:29:04;;;;;;;881.43;814.30;;;13.90;99.90;;;;;;5015702;28;20453;-72
2023/08/05 01:31:33;;;;;;;874.43;807.27;;;13.90;99.90;;;;;;5015611;28;20453;-72
2023/08/05 01:34:00;;;;;;;876.53;809.90;;;14.00;99.90;;;;;;5015464;28;20919;-72
2023/08/05 01:36:27;;;;;;;875.77;809.20;;;13.90;99.90;;;;;;5015613;28;20453;-72
2023/08/05 01:38:54;;;;;;;886.40;820.37;;;13.90;99.90;;;;;;5015707;28;20537;-72
2023/08/05 01:41:21;;;;;;;884.20;818.20;;;13.90;99.90;;;;;;5015352;28;20457;-72
2023/08/05 01:43:49;;;;;;;883.47;817.13;;;13.80;99.90;;;;;;5015545;28;20450;-72
2023/08/05 01:46:16;;;;;;;886.23;820.00;;;13.80;99.90;;;;;;5015402;28;20460;-72
2023/08/05 01:48:43;;;;;;;887.57;820.97;;;13.80;99.90;;;;;;5015257;28;20454;-72
2023/08/05 01:51:10;;;;;;;881.73;815.80;;;13.70;99.90;;;;;;5015442;28;20475;-72
2023/08/05 01:53:36;;;;;;;883.97;818.90;;;13.70;99.90;;;;;;5015379;28;20482;-72
2023/08/05 01:56:03;;;;;;;885.23;817.37;;;13.70;99.90;;;;;;5015436;28;20956;-72
2023/08/05 01:58:30;;;;;;;889.43;821.47;;;13.60;99.90;;;;;;5014794;28;20508;-72
2023/08/05 02:00:58;;;;;;;891.47;822.43;;;13.60;99.90;;;;;;5014559;28;20534;-72
2023/08/05 02:03:25;;;;;;;894.20;825.27;;;13.60;99.90;;;;;;5015045;28;20946;-72
2023/08/05 02:05:52;;;;;;;887.77;819.57;;;13.60;99.90;;;;;;5014061;28;20458;-72
2023/08/05 02:08:19;;;;;;;888.00;820.70;;;13.60;99.90;;;;;;5015070;28;20459;-72
2023/08/05 02:10:47;;;;;;;890.60;820.60;;;13.50;99.90;;;;;;5014959;28;20453;-72
2023/08/05 02:13:15;;;;;;;900.70;828.23;;;13.50;99.90;;;;;;5015064;28;20477;-72
2023/08/05 02:15:44;;;;;;;896.83;824.73;;;13.40;99.90;;;;;;5014894;28;20458;-72
2023/08/05 02:18:12;;;;;;;897.13;824.53;;;13.30;99.90;;;;;;5014820;28;20472;-72
2023/08/05 02:20:39;;;;;;;901.93;826.80;;;13.30;99.90;;;;;;5014880;28;20453;-72
2023/08/05 02:23:06;;;;;;;905.73;828.63;;;13.30;99.90;;;;;;5014727;28;20458;-72
2023/08/05 02:25:32;;;;;;;905.83;828.63;;;13.20;99.90;;;;;;5014562;28;20941;-72
2023/08/05 02:27:59;;;;;;;904.97;827.53;;;13.20;99.90;;;;;;5014915;28;20532;-72
2023/08/05 02:30:26;;;;;;;898.80;820.30;;;13.10;99.90;;;;;;5014405;28;20536;-72
2023/08/05 02:32:53;;;;;;;915.20;833.40;;;13.00;99.90;;;;;;5014650;28;20540;-72
2023/08/05 02:35:21;;;;;;;911.17;830.60;;;13.00;99.90;;;;;;5014641;28;20524;-72
2023/08/05 02:37:48;;;;;;;911.20;831.07;;;13.00;99.90;;;;;;5014439;28;20544;-71
2023/08/05 02:40:15;;;;;;;912.30;830.70;;;12.90;99.90;;;;;;5014354;28;20453;-71
2023/08/05 02:42:44;;;;;;;904.13;821.30;;;12.80;99.90;;;;;;5014361;28;20460;-71
2023/08/05 02:45:11;;;;;;;919.93;835.53;;;12.80;99.90;;;;;;5014285;28;20470;-71
2023/08/05 02:47:38;;;;;;;916.43;831.93;;;12.70;99.90;;;;;;5014518;28;20453;-72
2023/08/05 02:50:09;;;;;;;923.33;838.00;;;12.60;99.90;;;;;;5014138;28;20460;-71
2023/08/05 02:52:37;;;;;;;923.27;836.63;;;12.40;99.90;;;;;;5014334;28;20454;-71
2023/08/05 02:55:05;;;;;;;924.47;838.20;;;12.30;99.90;;;;;;5014160;28;20481;-72
2023/08/05 02:57:32;;;;;;;912.37;827.40;;;12.30;99.90;;;;;;5014064;28;20449;-71
2023/08/05 02:59:59;;;;;;;910.50;825.10;;;12.30;99.90;;;;;;5013933;28;20514;-71
2023/08/05 03:02:25;;;;;;;916.93;831.93;;;12.30;99.90;;;;;;5014054;28;20552;-71
2023/08/05 03:04:52;;;;;;;913.70;828.77;;;12.30;99.90;;;;;;5014019;28;20442;-71
2023/08/05 03:07:19;;;;;;;919.27;835.13;;;12.30;99.90;;;;;;5014085;28;20997;-71
2023/08/05 03:09:48;;;;;;;928.00;844.13;;;12.20;99.90;;;;;;5013918;28;20453;-72
2023/08/05 03:12:14;;;;;;;929.00;844.43;;;12.10;99.90;;;;;;5013586;28;20457;-72
2023/08/05 03:14:41;;;;;;;929.00;841.87;;;12.00;99.90;;;;;;5013771;28;20481;-72
2023/08/05 03:17:09;;;;;;;924.23;837.03;;;11.90;99.90;;;;;;5013565;28;20456;-71
2023/08/05 03:19:35;;;;;;;919.23;831.83;;;11.90;99.90;;;;;;5013576;28;20465;-71
2023/08/05 03:22:02;;;;;;;918.20;831.60;;;12.00;99.90;;;;;;5013609;28;20883;-71
2023/08/05 03:24:29;;;;;;;932.67;845.37;;;12.00;99.90;;;;;;5013675;28;20452;-71
2023/08/05 03:26:57;;;;;;;927.10;839.43;;;12.00;99.90;;;;;;5013949;28;20508;-72
2023/08/05 03:29:24;;;;;;;929.07;841.83;;;11.90;99.90;;;;;;5013583;28;20453;-71
2023/08/05 03:31:51;;;;;;;934.87;847.47;;;11.90;99.90;;;;;;5013303;28;20445;-71
2023/08/05 03:34:19;;;;;;;921.33;834.60;;;12.00;99.90;;;;;;5013560;28;20560;-70
2023/08/05 03:36:46;;;;;;;934.83;847.40;;;12.00;99.90;;;;;;5013584;28;20822;-71
2023/08/05 03:39:13;;;;;;;917.20;829.80;;;12.00;99.90;;;;;;5013351;28;20453;-70
2023/08/05 03:41:40;;;;;;;919.07;831.53;;;12.00;99.90;;;;;;5013566;28;20449;-70
2023/08/05 03:44:08;;;;;;;924.77;837.87;;;12.00;99.90;;;;;;5013419;28;20449;-71
2023/08/05 03:46:35;;;;;;;930.03;844.20;;;12.00;99.90;;;;;;5013421;28;20552;-71
2023/08/05 03:49:02;;;;;;;930.70;845.20;;;11.90;99.90;;;;;;5013320;28;20453;-70
2023/08/05 03:51:29;;;;;;;928.17;843.10;;;11.80;99.90;;;;;;5013066;28;20481;-71
2023/08/05 03:53:56;;;;;;;928.07;843.10;;;11.70;99.90;;;;;;5013109;28;20478;-71
2023/08/05 03:56:26;;;;;;;923.70;839.00;;;11.70;99.90;;;;;;5013503;28;20477;-70
2023/08/05 03:58:53;;;;;;;924.83;839.73;;;11.60;99.90;;;;;;5013378;28;20454;-70
2023/08/05 04:01:22;;;;;;;914.90;830.10;;;11.60;99.90;;;;;;5012924;28;20492;-72
2023/08/05 04:03:49;;;;;;;923.07;838.10;;;11.70;99.90;;;;;;5013412;28;20544;-72
2023/08/05 04:06:16;;;;;;;912.80;829.10;;;11.70;99.90;;;;;;5013049;28;20544;-72
2023/08/05 04:08:44;;;;;;;901.17;817.63;;;11.80;99.90;;;;;;5013203;28;20477;-72
2023/08/05 04:11:11;;;;;;;897.30;812.60;;;11.80;99.90;;;;;;5013002;28;20511;-72
2023/08/05 04:13:39;;;;;;;895.50;811.13;;;11.90;99.90;;;;;;5013177;28;20477;-72
2023/08/05 04:16:08;;;;;;;898.67;814.57;;;12.00;99.90;;;;;;5013189;28;20449;-71
2023/08/05 04:18:38;;;;;;;907.50;824.03;;;12.10;99.90;;;;;;5012450;28;20468;-72
2023/08/05 04:21:05;;;;;;;894.67;810.43;;;12.10;99.90;;;;;;5012881;28;20465;-71
2023/08/05 04:23:34;;;;;;;898.10;812.30;;;12.10;99.90;;;;;;5012774;28;20457;-71
2023/08/05 04:26:02;;;;;;;893.53;808.30;;;12.20;99.90;;;;;;5013224;28;20449;-71
2023/08/05 04:28:29;;;;;;;900.33;814.53;;;12.30;99.90;;;;;;5013956;28;20457;-71
2023/08/05 04:30:57;;;;;;;896.33;811.13;;;12.30;99.90;;;;;;5017178;28;20457;-71
2023/08/05 04:33:25;;;;;;;900.87;815.47;;;12.50;99.90;;;;;;5016710;28;20526;-71
2023/08/05 04:35:54;;;;;;;898.33;813.97;;;12.60;99.90;;;;;;5016751;28;20453;-71
2023/08/05 04:38:21;;;;;;;881.70;797.97;;;12.70;99.90;;;;;;5016500;28;20536;-72
2023/08/05 04:40:50;;;;;;;876.17;793.77;;;12.80;99.90;;;;;;5016577;28;21036;-71
2023/08/05 04:43:17;;;;;;;877.90;796.53;;;12.80;99.90;;;;;;5016692;28;20453;-71
2023/08/05 04:45:44;;;;;;;883.10;801.57;;;12.90;99.90;;;;;;5016683;28;20453;-71
2023/08/05 04:48:11;;;;;;;883.63;802.27;;;12.90;99.90;;;;;;5016911;28;20548;-71
2023/08/05 04:50:38;;;;;;;900.13;819.53;;;13.00;99.90;;;;;;5016580;28;20810;-71
2023/08/05 04:53:07;;;;;;;897.97;816.63;;;13.10;99.90;;;;;;5016699;28;20552;-71
2023/08/05 04:55:34;;;;;;;891.20;809.27;;;13.20;99.90;;;;;;5016418;28;20485;-71
2023/08/05 04:58:01;;;;;;;889.03;808.00;;;13.30;99.90;;;;;;5016437;28;20454;-72
2023/08/05 05:00:28;;;;;;;884.50;804.30;;;13.40;99.90;;;;;;5016096;28;20453;-71
2023/08/05 05:02:57;;;;;;;883.73;803.23;;;13.40;99.90;;;;;;5016407;28;20545;-71
2023/08/05 05:05:25;;;;;;;877.90;797.50;;;13.50;99.90;;;;;;5016405;28;20485;-71
2023/08/05 05:07:51;;;;;;;872.80;793.20;;;13.50;99.90;;;;;;5016226;28;20515;-71
2023/08/05 05:10:20;;;;;;;875.27;795.77;;;13.60;99.90;;;;;;5016309;28;20831;-71
2023/08/05 05:12:48;;;;;;;876.37;797.60;;;13.60;99.90;;;;;;5016140;28;20497;-72
2023/08/05 05:15:15;;;;;;;883.80;805.50;;;13.70;99.90;;;;;;5016316;28;20619;-71
2023/08/05 05:17:42;;;;;;;878.80;801.30;;;13.70;99.90;;;;;;5015871;28;20461;-71
2023/08/05 05:20:09;;;;;;;879.60;802.77;;;13.70;99.90;;;;;;5016036;28;20449;-71
2023/08/05 05:22:36;;;;;;;875.40;799.47;;;13.70;99.90;;;;;;5015864;28;20544;-71
2023/08/05 05:25:03;;;;;;;882.60;806.90;;;13.80;99.90;;;;;;5015979;28;20532;-72
2023/08/05 05:27:31;;;;;;;879.30;804.30;;;13.80;99.90;;;;;;5015597;28;20830;-72
2023/08/05 05:29:58;;;;;;;884.57;809.97;;;13.80;99.90;;;;;;5015916;28;20504;-71
2023/08/05 05:32:25;;;;;;;881.93;808.17;;;13.80;99.90;;;;;;5015707;28;20457;-72
2023/08/05 05:34:52;;;;;;;880.80;807.80;;;13.90;99.90;;;;;;5015966;28;20516;-71
2023/08/05 05:37:21;;;;;;;872.80;801.63;;;14.00;99.90;;;;;;5015623;28;20451;-71
2023/08/05 05:39:47;;;;;;;860.07;788.77;;;14.10;99.90;;;;;;5014519;28;20438;-71
2023/08/05 05:42:15;;;;;;;813.00;746.70;;;14.40;99.90;;;;;;5014381;28;20532;-71
2023/08/05 05:44:50;;;;;;;770.30;712.50;;;14.90;99.90;;;;;;5015299;28;20451;-73
2023/08/05 05:47:17;;;;;;;693.27;648.53;;;15.30;99.90;;;;;;5015149;28;20453;-72
2023/08/05 05:49:43;;;;;;;539.07;510.80;;;15.80;99.90;;;;;;5015256;28;21033;-73
2023/08/05 05:52:13;;;;;;;306.23;293.17;;;16.20;99.90;;;;;;5014983;28;20455;-74
2023/08/05 05:54:40;;;;;;;86.90;83.30;;;16.50;99.90;;;;;;5014905;28;20483;-74
2023/08/05 05:57:07;;;;;;;59.93;57.27;;;16.80;99.90;;;;;;5015150;28;20967;-75
2023/08/05 05:59:34;;;;;;;10.73;9.47;;;17.20;99.90;;;;;;5015170;28;20496;-73
2023/08/05 06:02:02;;;;;;;9.80;6.43;;;17.60;99.90;;;;;;5015374;28;20557;-73
2023/08/05 06:04:30;;;;;;;10.03;7.00;;;17.80;99.90;;;;;;5014663;28;20481;-74
2023/08/05 06:06:57;;;;;;;11.87;8.20;;;17.40;99.90;;;;;;5014971;28;20877;-74
2023/08/05 06:09:25;;;;;;;9.80;7.00;;;17.20;99.90;;;;;;5014723;28;20556;-74
2023/08/05 06:11:52;;;;;;;12.80;8.07;;;17.10;99.90;;;;;;5014623;28;20534;-74
2023/08/05 06:14:20;;;;;;;11.00;8.30;;;17.00;99.90;;;;;;5014602;28;20474;-74
2023/08/05 06:16:47;;;;;;;10.77;8.13;;;16.80;99.90;;;;;;5014790;28;20457;-73
2023/08/05 06:19:15;;;;;;;14.73;13.33;;;16.70;99.90;;;;;;5014357;28;20489;-74
2023/08/05 06:21:42;;;;;;;18.80;17.20;;;16.70;99.90;;;;;;5014144;28;20536;-74
2023/08/05 06:24:09;;;;;;;20.67;19.07;;;16.90;99.90;;;;;;5014488;28;20453;-73
2023/08/05 06:26:36;;;;;;;15.70;14.10;;;17.20;99.90;;;;;;5014751;28;20454;-73
2023/08/05 06:29:02;;;;;;;14.60;13.03;;;17.50;99.90;;;;;;5014332;28;20453;-73
2023/08/05 06:31:30;;;;;;;10.27;8.60;;;17.80;99.90;;;;;;5014243;28;20455;-74
2023/08/05 06:33:57;;;;;;;10.53;6.50;;;18.20;99.90;;;;;;5014052;28;20445;-74
2023/08/05 06:36:29;;;;;;;12.60;6.73;;;18.30;99.90;;;;;;5014136;28;20528;-74
2023/08/05 06:38:55;;;;;;;13.77;6.30;;;18.40;99.90;;;;;;5014510;28;20449;-74
2023/08/05 06:41:23;;;;;;;11.60;6.87;;;18.50;99.90;;;;;;5013911;28;20988;-74
2023/08/05 06:43:51;;;;;;;12.10;6.83;;;18.60;99.90;;;;;;5014359;28;20852;-73
2023/08/05 06:46:19;;;;;;;9.20;6.70;;;18.70;99.90;;;;;;5013791;28;20456;-74
2023/08/05 06:48:46;;;;;;;10.33;6.50;;;18.90;99.90;;;;;;5013971;28;20460;-73
2023/08/05 06:51:13;;;;;;;14.53;8.03;;;19.30;99.90;;;;;;5013622;28;20953;-74
2023/08/05 06:53:44;;;;;;;13.53;10.07;;;19.60;99.90;;;;;;5013625;28;20453;-74
2023/08/05 06:56:11;;;;;;;12.67;7.90;;;19.90;99.90;;;;;;5012854;28;20532;-74
2023/08/05 06:58:37;;;;;;;13.70;10.83;;;20.20;99.90;;;;;;5011165;28;20515;-73
2023/08/05 07:01:04;;;;;;;12.60;8.87;;;20.80;99.90;;;;;;5011636;28;20523;-73
2023/08/05 07:03:34;;;;;;;12.03;7.33;;;21.60;99.10;;;;;;5013059;28;20830;-74
2023/08/05 07:06:01;;;;;;;10.07;5.83;;;21.90;97.20;;;;;;5013781;28;20445;-74
2023/08/05 07:08:28;;;;;;;9.13;5.00;;;22.00;93.50;;;;;;5013475;28;20456;-74
2023/08/05 07:10:57;;;;;;;10.70;4.60;;;21.70;90.00;;;;;;5013423;28;20903;-74
2023/08/05 07:13:24;;;;;;;8.40;5.50;;;21.50;88.50;;;;;;5013503;28;20457;-74
2023/08/05 07:15:51;;;;;;;9.80;5.47;;;21.30;91.20;;;;;;5013254;28;20484;-74
2023/08/05 07:18:18;;;;;;;11.80;4.73;;;21.50;92.00;;;;;;5013000;28;20972;-74
2023/08/05 07:20:46;;;;;;;9.97;5.80;;;21.70;91.70;;;;;;5009316;28;20460;-73
2023/08/05 07:23:12;;;;;;;11.33;5.97;;;22.00;89.30;;;;;;4993412;28;20459;-74
2023/08/05 07:25:39;;;;;;;12.10;7.03;;;22.00;87.90;;;;;;4993226;28;20453;-73
2023/08/05 07:28:08;;;;;;;13.70;7.17;;;22.60;88.50;;;;;;4996578;28;20961;-73
2023/08/05 07:30:35;;;;;;;14.10;7.77;;;22.80;88.60;;;;;;5012507;28;20457;-73
2023/08/05 07:33:04;;;;;;;16.00;9.37;;;23.00;88.70;;;;;;5012805;28;20449;-73
2023/08/05 07:35:32;;;;;;;13.60;9.30;;;22.80;81.90;;;;;;5012740;28;20853;-74
2023/08/05 07:38:01;;;;;;;16.13;8.90;;;22.50;80.50;;;;;;5012789;28;20944;-73
2023/08/05 07:40:29;;;;;;;11.97;8.00;;;22.40;80.40;;;;;;5012449;28;20511;-73
2023/08/05 07:42:56;;;;;;;14.10;9.03;;;22.00;80.00;;;;;;5012265;28;20453;-74
2023/08/05 07:45:25;;;;;;;17.17;10.23;;;22.00;80.00;;;;;;5012699;28;20452;-73
2023/08/05 07:47:52;;;;;;;11.00;7.87;;;21.80;79.80;;;;;;5012914;28;20449;-73
2023/08/05 07:50:22;;;;;;;15.87;7.67;;;21.90;79.90;;;;;;5012789;28;20456;-73
2023/08/05 07:52:49;;;;;;;11.17;7.27;;;22.10;80.10;;;;;;5012324;28;21013;-74
2023/08/05 07:55:16;;;;;;;15.03;7.30;;;21.80;78.30;;;;;;5012382;28;20480;-73
2023/08/05 07:57:43;;;;;;;13.90;7.37;;;22.10;80.10;;;;;;5012164;28;20441;-73
2023/08/05 08:00:12;;;;;;;11.80;7.03;;;22.50;76.40;;;;;;5012267;28;20456;-74
2023/08/05 08:02:42;;;;;;;15.03;8.40;;;22.80;72.70;;;;;;5012299;28;20449;-73
2023/08/05 08:05:09;;;;;;;11.67;7.80;;;23.10;73.00;;;;;;5012496;28;21011;-73
2023/08/05 08:07:36;;;;;;;11.63;7.47;;;23.30;73.10;;;;;;5012615;28;20453;-73
2023/08/05 08:10:03;;;;;;;10.37;6.90;;;23.70;73.40;;;;;;5012390;28;20454;-73
2023/08/05 08:12:30;;;;;;;11.07;6.33;;;24.00;57.00;;;;;;5012620;28;20449;-74
2023/08/05 08:14:57;;;;;;;11.87;7.87;;;24.20;57.20;;;;;;5012406;28;20481;-72
2023/08/05 08:17:23;;;;;;;10.93;7.07;;;24.10;57.80;;;;;;5012362;28;20492;-73
2023/08/05 08:19:52;;;;;;;13.40;8.80;;;23.80;49.80;;;;;;5012482;28;20496;-72
2023/08/05 08:22:18;;;;;;;11.70;7.47;;;23.50;50.10;;;;;;5012809;28;20488;-72
2023/08/05 08:24:45;;;;;;;14.00;8.27;;;23.40;53.60;;;;;;5012295;28;20540;-73
2023/08/05 08:27:12;;;;;;;11.13;7.30;;;22.90;54.80;;;;;;5012546;28;20485;-73
2023/08/05 08:29:39;;;;;;;12.20;7.63;;;22.70;55.80;;;;;;5012445;28;20459;-72
2023/08/05 08:32:06;;;;;;;11.00;6.37;;;22.70;56.60;;;;;;5012356;28;20877;-72
2023/08/05 08:34:33;;;;;;;8.40;5.43;;;22.70;55.70;;;;;;5012733;28;20492;-72
2023/08/05 08:37:02;;;;;;;8.83;4.80;;;22.50;55.60;;;;;;5012158;28;20481;-73
2023/08/05 08:39:28;;;;;;;9.90;5.10;;;22.40;55.50;;;;;;5012444;28;20472;-72
2023/08/05 08:41:56;;;;;;;7.73;5.70;;;22.60;55.70;;;;;;5012089;28;20453;-72
2023/08/05 08:44:25;;;;;;;7.73;4.37;;;23.00;56.00;;;;;;5012159;28;20460;-72
2023/08/05 08:46:52;;;;;;;10.63;4.93;;;23.10;47.30;;;;;;5012293;28;20476;-72
2023/08/05 08:49:20;;;;;;;6.53;4.10;;;23.80;53.00;;;;;;5012198;28;20453;-72
2023/08/05 08:51:48;;;;;;;8.77;4.07;;;23.80;47.90;;;;;;5011831;28;20543;-72
2023/08/05 08:54:19;;;;;;;10.87;5.70;;;24.10;39.10;;;;;;5012106;28;20460;-72
2023/08/05 08:56:46;;;;;;;8.53;3.83;;;24.50;39.10;;;;;;5012130;28;20484;-72
2023/08/05 08:59:13;;;;;;;7.93;4.60;;;24.50;39.50;;;;;;5012106;28;20449;-72
2023/08/05 09:01:41;;;;;;;7.10;4.33;;;24.40;39.40;;;;;;5012130;28;20645;-73
2023/08/05 09:04:08;;;;;;;8.60;4.10;;;24.20;37.30;;;;;;5012088;28;20453;-72
2023/08/05 09:06:38;;;;;;;7.20;4.37;;;24.40;35.30;;;;;;5012284;28;20445;-73
2023/08/05 09:09:05;;;;;;;7.47;4.60;;;24.20;39.20;;;;;;5011937;28;20914;-72
2023/08/05 09:11:33;;;;;;;8.53;4.93;;;23.60;37.10;;;;;;5011898;28;20965;-72
2023/08/05 09:14:00;;;;;;;7.40;4.07;;;23.60;34.90;;;;;;5012036;28;20934;-73
2023/08/05 09:16:27;;;;;;;12.20;5.53;;;24.10;39.10;;;;;;5015579;28;20465;-72
2023/08/05 09:18:55;;;;;;;8.23;4.60;;;24.60;39.60;;;;;;5015292;28;20464;-72
2023/08/05 09:21:22;;;;;;;9.70;4.37;;;24.50;31.80;;;;;;5015560;28;20450;-72
2023/08/05 09:23:49;;;;;;;8.07;4.70;;;24.70;37.30;;;;;;5015690;28;20449;-73
2023/08/05 09:26:26;;;;;;;7.50;4.80;;;25.00;30.70;;;;;;5015309;28;20956;-73
2023/08/05 09:28:54;;;;;;;7.23;4.20;;;24.50;30.20;;;;;;5015289;28;20460;-72
2023/08/05 09:31:21;;;;;;;8.80;5.23;;;24.60;30.30;;;;;;5015115;28;20957;-72
2023/08/05 09:33:48;;;;;;;7.97;4.17;;;25.50;32.40;;;;;;5015458;28;20458;-72
2023/08/05 09:36:15;;;;;;;9.17;4.77;;;26.10;31.40;;;;;;5015320;28;20481;-72
2023/08/05 09:38:44;;;;;;;7.67;4.53;;;26.60;26.60;;;;;;5015157;28;20949;-73
2023/08/05 09:41:12;;;;;;;6.90;4.10;;;26.70;24.20;;;;;;5015129;28;20503;-72
2023/08/05 09:43:40;;;;;;;6.80;3.60;;;26.60;20.50;;;;;;5015017;28;20461;-72
2023/08/05 09:46:12;;;;;;;6.60;3.77;;;25.40;23.50;;;;;;5015328;28;20446;-72
2023/08/05 09:48:43;;;;;;;7.10;3.57;;;25.20;23.40;;;;;;5014983;28;20453;-72
2023/08/05 09:51:14;;;;;;;6.13;3.10;;;24.90;25.50;;;;;;5014880;28;20544;-72
2023/08/05 09:53:42;;;;;;;6.83;3.27;;;25.30;23.40;;;;;;5015059;28;20453;-72
2023/08/05 09:56:10;;;;;;;6.40;3.07;;;26.10;21.40;;;;;;5014777;28;20477;-73
2023/08/05 09:58:38;;;;;;;8.83;3.23;;;25.90;18.10;;;;;;5014670;28;20941;-73
2023/08/05 10:01:07;;;;;;;7.13;2.87;;;26.50;24.10;;;;;;5014785;28;20460;-72
2023/08/05 10:03:38;;;;;;;5.30;2.27;;;27.20;17.00;;;;;;5014926;28;20449;-72
2023/08/05 10:06:07;;;;;;;5.43;2.30;;;27.90;11.50;;;;;;5014721;28;20450;-73
2023/08/05 10:08:36;;;;;;;6.10;2.27;;;27.00;11.20;;;;;;5014845;28;20537;-71
2023/08/05 10:11:05;;;;;;;5.60;2.57;;;26.50;17.30;;;;;;5014307;28;20449;-72
2023/08/05 10:13:38;;;;;;;6.30;2.13;;;26.20;16.40;;;;;;5014555;28;20544;-72
2023/08/05 10:16:08;;;;;;;7.03;2.40;;;26.40;16.50;;;;;;5014690;28;20491;-72
2023/08/05 10:18:38;;;;;;;5.10;2.07;;;26.10;8.70;;;;;;5014361;28;20469;-72
2023/08/05 10:21:06;;;;;;;6.13;2.87;;;27.00;9.20;;;;;;5014256;28;20488;-72
2023/08/05 10:23:36;;;;;;;5.80;2.20;;;27.60;3.40;;;;;;5014257;28;20460;-73
2023/08/05 10:26:04;;;;;;;5.63;2.97;;;27.30;1.50;;;;;;5013206;28;20441;-72
2023/08/05 10:28:42;;;;;;;6.60;3.17;;;27.40;9.30;;;;;;5014430;28;20882;-72
2023/08/05 10:31:25;;;;;;;6.97;2.63;;;27.10;6.10;;;;;;5014148;28;20455;-72
2023/08/05 10:34:12;;;;;;;5.03;1.80;;;26.20;7.20;;;;;;5012429;28;20453;-72
2023/08/05 10:36:43;;;;;;;5.53;2.10;;;25.90;8.60;;;;;;5014174;28;20481;-72
2023/08/05 10:39:41;;;;;;;6.23;2.17;;;25.90;8.60;;;;;;5014217;28;20519;-73
2023/08/05 10:42:22;;;;;;;5.30;1.90;;;26.40;11.10;;;;;;5013867;28;20481;-72
2023/08/05 10:44:54;;;;;;;5.00;1.80;;;26.60;4.50;;;;;;5014239;28;20503;-72
2023/08/05 10:47:22;;;;;;;5.70;2.70;;;26.30;8.80;;;;;;5014168;28;20589;-72
2023/08/05 10:49:55;;;;;;;9.20;2.67;;;26.20;8.80;;;;;;5013808;28;20450;-72
2023/08/05 10:52:23;;;;;;;6.60;2.47;;;25.80;8.60;;;;;;5013712;28;20536;-73
2023/08/05 10:54:50;;;;;;;5.10;1.83;;;25.40;11.90;;;;;;5013727;28;20452;-73
2023/08/05 10:57:30;;;;;;;5.10;2.17;;;25.30;8.30;;;;;;5013793;28;20564;-72
2023/08/05 11:00:00;;;;;;;5.00;2.10;;;25.80;8.60;;;;;;5013776;28;20453;-72
2023/08/05 11:02:27;;;;;;;5.00;1.93;;;26.30;8.80;;;;;;5013521;28;20456;-72
2023/08/05 11:05:07;;;;;;;6.30;2.40;;;26.60;9.00;;;;;;5013577;28;20540;-72
2023/08/05 11:07:37;;;;;;;6.57;2.10;;;26.80;7.20;;;;;;5013852;28;20453;-72
2023/08/05 11:10:05;;;;;;;5.80;2.77;;;26.50;8.90;;;;;;5013572;28;20528;-72
2023/08/05 11:12:32;;;;;;;7.53;2.30;;;26.00;8.40;;;;;;5013319;28;20540;-73
2023/08/05 11:15:00;;;;;;;5.77;2.07;;;25.60;8.50;;;;;;5013547;28;20453;-72
2023/08/05 11:17:27;;;;;;;6.20;1.97;;;25.80;8.60;;;;;;5013091;28;20504;-73
2023/08/05 11:19:56;;;;;;;5.87;2.00;;;25.40;8.40;;;;;;5013437;28;20573;-72
2023/08/05 11:22:26;;;;;;;5.30;1.83;;;25.10;8.20;;;;;;5013299;28;20460;-73
2023/08/05 11:24:57;;;;;;;6.87;1.80;;;24.80;8.00;;;;;;5013401;28;20450;-73
2023/08/05 11:27:32;;;;;;;5.67;2.40;;;24.50;8.80;;;;;;5013172;28;20452;-73
2023/08/05 11:29:59;;;;;;;5.93;2.10;;;24.30;12.20;;;;;;5012929;28;20452;-72
2023/08/05 11:32:26;;;;;;;5.63;2.03;;;24.30;15.30;;;;;;5013220;28;20930;-72
2023/08/05 11:35:01;;;;;;;5.60;2.17;;;24.50;15.40;;;;;;5013285;28;20449;-72
2023/08/05 11:37:36;;;;;;;6.63;2.20;;;24.40;14.20;;;;;;5012782;28;20932;-73
2023/08/05 11:40:04;;;;;;;6.75;2.70;;;25.00;10.20;;;;;;5012103;28;20949;-72
2023/08/05 11:42:31;;;;;;;4.80;1.70;;;26.00;10.60;;;;;;5012647;28;20671;-71
2023/08/05 11:44:58;;;;;;;5.60;2.60;;;27.50;5.60;;;;;;5012981;28;20494;-72
2023/08/05 11:47:25;;;;;;;6.70;2.23;;;28.50;2.20;;;;;;5012798;28;20541;-72
2023/08/05 11:49:52;;;;;;;9.07;2.20;;;28.60;1.00;;;;;;5012868;28;20450;-71
2023/08/05 11:52:19;;;;;;;4.97;1.70;;;28.90;1.00;;;;;;5012714;28;20499;-71
2023/08/05 11:54:56;;;;;;;4.87;1.67;;;29.40;1.00;;;;;;5012728;28;20461;-72
2023/08/05 11:57:23;;;;;;;8.57;2.30;;;29.60;1.00;;;;;;5012694;28;20480;-72
2023/08/05 11:59:51;;;;;;;5.60;1.47;;;29.70;1.00;;;;;;5012849;28;20544;-71
2023/08/05 12:02:19;;;;;;;7.03;2.10;;;29.80;1.00;;;;;;5012406;28;20455;-71
2023/08/05 12:04:48;;;;;;;5.57;1.90;;;30.20;1.00;;;;;;5013316;28;20206;-72
2023/08/05 12:07:15;;;;;;;5.10;1.70;;;30.20;1.00;;;;;;5013287;28;20449;-71
2023/08/05 12:09:43;;;;;;;5.20;2.30;;;29.40;1.00;;;;;;5013019;28;20452;-72
2023/08/05 12:12:15;;;;;;;5.73;1.80;;;29.60;1.00;;;;;;5013458;28;20456;-71
2023/08/05 12:14:42;;;;;;;6.00;1.70;;;29.20;1.00;;;;;;5013291;28;20447;-70
2023/08/05 12:17:10;;;;;;;6.07;2.07;;;28.20;1.00;;;;;;5012966;28;20522;-71
2023/08/05 12:19:37;;;;;;;5.60;2.00;;;27.70;1.00;;;;;;5012328;28;20445;-69
2023/08/05 12:22:04;;;;;;;8.73;2.67;;;26.80;1.00;;;;;;5011700;28;20441;-69
2023/08/05 12:24:31;;;;;;;6.00;2.10;;;26.00;1.00;;;;;;5012677;28;20445;-68
2023/08/05 12:26:58;;;;;;;6.03;2.23;;;24.70;15.60;;;;;;5012678;28;20453;-66
2023/08/05 12:29:26;;;;;;;5.80;2.20;;;23.10;21.90;;;;;;5012159;28;21012;-65
2023/08/05 12:31:53;;;;;;;7.13;2.27;;;21.90;34.10;;;;;;5012112;28;20453;-66